sensor_id;sensor_type;location;lat;lon;timestamp;P1;durP1;ratioP1;P2;durP2;ratioP2
47483;SDS011;54076;50.322;18.650;2023-07-28T00:02:26;4.20;;;1.80;;
47483;SDS011;54076;50.322;18.650;2023-07-28T00:07:27;5.00;;;1.90;;
47483;SDS011;54076;50.322;18.650;2023-07-28T00:12:27;4.00;;;1.80;;
47483;SDS011;54076;50.322;18.650;2023-07-28T00:17:28;5.40;;;1.70;;
47483;SDS011;54076;50.322;18.650;2023-07-28T00:22:29;6.50;;;1.70;;
47483;SDS011;54076;50.322;18.650;2023-07-28T00:27:30;4.90;;;2.10;;
47483;SDS011;54076;50.322;18.650;2023-07-28T00:32:31;4.90;;;1.80;;
47483;SDS011;54076;50.322;18.650;2023-07-28T00:37:32;5.80;;;2.10;;
47483;SDS011;54076;50.322;18.650;2023-07-28T00:42:32;4.90;;;1.70;;
47483;SDS011;54076;50.322;18.650;2023-07-28T00:47:34;5.80;;;1.80;;
47483;SDS011;54076;50.322;18.650;2023-07-28T00:52:36;6.10;;;2.00;;
47483;SDS011;54076;50.322;18.650;2023-07-28T00:57:38;6.80;;;1.80;;
47483;SDS011;54076;50.322;18.650;2023-07-28T01:02:39;5.40;;;1.80;;
47483;SDS011;54076;50.322;18.650;2023-07-28T01:07:51;7.60;;;1.70;;
47483;SDS011;54076;50.322;18.650;2023-07-28T01:12:57;6.60;;;1.70;;
47483;SDS011;54076;50.322;18.650;2023-07-28T01:17:58;4.60;;;1.90;;
47483;SDS011;54076;50.322;18.650;2023-07-28T01:23:13;5.20;;;1.80;;
47483;SDS011;54076;50.322;18.650;2023-07-28T01:28:20;4.80;;;1.80;;
47483;SDS011;54076;50.322;18.650;2023-07-28T01:33:21;4.80;;;1.80;;
47483;SDS011;54076;50.322;18.650;2023-07-28T01:38:22;4.50;;;1.80;;
47483;SDS011;54076;50.322;18.650;2023-07-28T01:43:23;5.40;;;1.70;;
47483;SDS011;54076;50.322;18.650;2023-07-28T01:48:25;7.10;;;1.90;;
47483;SDS011;54076;50.322;18.650;2023-07-28T01:53:26;3.90;;;1.70;;
47483;SDS011;54076;50.322;18.650;2023-07-28T01:58:27;5.30;;;1.90;;
47483;SDS011;54076;50.322;18.650;2023-07-28T02:03:28;5.60;;;1.50;;
47483;SDS011;54076;50.322;18.650;2023-07-28T02:08:29;4.40;;;1.80;;
47483;SDS011;54076;50.322;18.650;2023-07-28T02:13:30;5.30;;;2.00;;
47483;SDS011;54076;50.322;18.650;2023-07-28T02:18:31;5.90;;;1.90;;
47483;SDS011;54076;50.322;18.650;2023-07-28T02:23:31;4.50;;;1.70;;
47483;SDS011;54076;50.322;18.650;2023-07-28T02:28:33;5.30;;;1.60;;
47483;SDS011;54076;50.322;18.650;2023-07-28T02:33:34;5.30;;;1.80;;
47483;SDS011;54076;50.322;18.650;2023-07-28T02:38:37;5.10;;;1.90;;
47483;SDS011;54076;50.322;18.650;2023-07-28T02:43:38;5.90;;;1.90;;
47483;SDS011;54076;50.322;18.650;2023-07-28T02:48:39;6.20;;;1.90;;
47483;SDS011;54076;50.322;18.650;2023-07-28T02:53:39;4.40;;;1.90;;
47483;SDS011;54076;50.322;18.650;2023-07-28T02:58:40;6.60;;;2.10;;
47483;SDS011;54076;50.322;18.650;2023-07-28T03:03:41;4.60;;;2.00;;
47483;SDS011;54076;50.322;18.650;2023-07-28T03:08:42;5.80;;;1.90;;
47483;SDS011;54076;50.322;18.650;2023-07-28T03:13:43;4.20;;;1.60;;
47483;SDS011;54076;50.322;18.650;2023-07-28T03:18:44;4.60;;;1.80;;
47483;SDS011;54076;50.322;18.650;2023-07-28T03:23:45;6.10;;;2.10;;
47483;SDS011;54076;50.322;18.650;2023-07-28T03:28:46;5.80;;;2.00;;
47483;SDS011;54076;50.322;18.650;2023-07-28T03:33:47;5.10;;;2.10;;
47483;SDS011;54076;50.322;18.650;2023-07-28T03:38:47;5.40;;;2.00;;
47483;SDS011;54076;50.322;18.650;2023-07-28T03:43:48;4.00;;;1.80;;
47483;SDS011;54076;50.322;18.650;2023-07-28T03:48:49;5.10;;;1.90;;
47483;SDS011;54076;50.322;18.650;2023-07-28T03:53:50;4.10;;;1.90;;
47483;SDS011;54076;50.322;18.650;2023-07-28T03:58:51;4.90;;;2.10;;
47483;SDS011;54076;50.322;18.650;2023-07-28T04:03:54;4.10;;;1.70;;
47483;SDS011;54076;50.322;18.650;2023-07-28T04:08:54;4.60;;;1.70;;
47483;SDS011;54076;50.322;18.650;2023-07-28T04:13:55;7.60;;;1.80;;
47483;SDS011;54076;50.322;18.650;2023-07-28T04:18:56;5.00;;;1.90;;
47483;SDS011;54076;50.322;18.650;2023-07-28T04:23:58;4.60;;;1.90;;
47483;SDS011;54076;50.322;18.650;2023-07-28T04:28:59;4.60;;;2.00;;
47483;SDS011;54076;50.322;18.650;2023-07-28T04:34:01;4.70;;;1.70;;
47483;SDS011;54076;50.322;18.650;2023-07-28T04:39:03;6.30;;;1.90;;
47483;SDS011;54076;50.322;18.650;2023-07-28T04:44:04;5.70;;;2.20;;
47483;SDS011;54076;50.322;18.650;2023-07-28T04:49:05;5.20;;;2.00;;
47483;SDS011;54076;50.322;18.650;2023-07-28T04:54:06;4.30;;;1.80;;
47483;SDS011;54076;50.322;18.650;2023-07-28T04:59:07;5.10;;;1.80;;
47483;SDS011;54076;50.322;18.650;2023-07-28T05:04:09;4.30;;;1.80;;
47483;SDS011;54076;50.322;18.650;2023-07-28T05:09:10;7.10;;;2.00;;
47483;SDS011;54076;50.322;18.650;2023-07-28T05:14:11;4.90;;;2.00;;
47483;SDS011;54076;50.322;18.650;2023-07-28T05:19:12;6.20;;;1.80;;
47483;SDS011;54076;50.322;18.650;2023-07-28T05:24:13;5.10;;;1.70;;
47483;SDS011;54076;50.322;18.650;2023-07-28T05:29:14;6.20;;;1.70;;
47483;SDS011;54076;50.322;18.650;2023-07-28T05:34:15;5.80;;;2.10;;
47483;SDS011;54076;50.322;18.650;2023-07-28T05:39:16;6.30;;;2.10;;
47483;SDS011;54076;50.322;18.650;2023-07-28T05:44:17;6.90;;;1.90;;
47483;SDS011;54076;50.322;18.650;2023-07-28T05:49:18;5.30;;;2.20;;
47483;SDS011;54076;50.322;18.650;2023-07-28T05:54:19;5.30;;;1.90;;
47483;SDS011;54076;50.322;18.650;2023-07-28T05:59:19;5.10;;;2.10;;
47483;SDS011;54076;50.322;18.650;2023-07-28T06:04:20;6.60;;;2.00;;
47483;SDS011;54076;50.322;18.650;2023-07-28T06:09:22;4.30;;;1.80;;
47483;SDS011;54076;50.322;18.650;2023-07-28T06:14:23;4.40;;;1.70;;
47483;SDS011;54076;50.322;18.650;2023-07-28T06:19:23;3.70;;;1.70;;
47483;SDS011;54076;50.322;18.650;2023-07-28T06:24:24;5.90;;;2.00;;
47483;SDS011;54076;50.322;18.650;2023-07-28T06:29:25;4.60;;;1.80;;
47483;SDS011;54076;50.322;18.650;2023-07-28T06:34:26;8.20;;;1.80;;
47483;SDS011;54076;50.322;18.650;2023-07-28T06:39:27;5.40;;;2.30;;
47483;SDS011;54076;50.322;18.650;2023-07-28T06:44:30;5.60;;;2.30;;
47483;SDS011;54076;50.322;18.650;2023-07-28T06:49:31;5.00;;;2.00;;
47483;SDS011;54076;50.322;18.650;2023-07-28T06:54:32;5.10;;;1.90;;
47483;SDS011;54076;50.322;18.650;2023-07-28T06:59:33;8.80;;;2.20;;
47483;SDS011;54076;50.322;18.650;2023-07-28T07:04:34;6.10;;;2.20;;
47483;SDS011;54076;50.322;18.650;2023-07-28T07:09:35;4.90;;;2.20;;
47483;SDS011;54076;50.322;18.650;2023-07-28T07:14:37;5.20;;;2.10;;
47483;SDS011;54076;50.322;18.650;2023-07-28T07:19:37;7.30;;;2.50;;
47483;SDS011;54076;50.322;18.650;2023-07-28T07:24:38;6.30;;;2.20;;
47483;SDS011;54076;50.322;18.650;2023-07-28T07:29:39;4.80;;;1.90;;
47483;SDS011;54076;50.322;18.650;2023-07-28T07:34:40;7.00;;;2.50;;
47483;SDS011;54076;50.322;18.650;2023-07-28T07:39:41;5.90;;;2.40;;
47483;SDS011;54076;50.322;18.650;2023-07-28T07:44:44;7.80;;;2.40;;
47483;SDS011;54076;50.322;18.650;2023-07-28T07:49:44;6.90;;;2.50;;
47483;SDS011;54076;50.322;18.650;2023-07-28T07:54:45;7.30;;;3.00;;
47483;SDS011;54076;50.322;18.650;2023-07-28T07:59:46;5.10;;;2.30;;
47483;SDS011;54076;50.322;18.650;2023-07-28T08:04:47;4.80;;;2.20;;
47483;SDS011;54076;50.322;18.650;2023-07-28T08:09:49;6.00;;;2.40;;
47483;SDS011;54076;50.322;18.650;2023-07-28T08:14:50;4.90;;;2.20;;
47483;SDS011;54076;50.322;18.650;2023-07-28T08:19:51;5.10;;;2.10;;
47483;SDS011;54076;50.322;18.650;2023-07-28T08:24:52;5.80;;;2.20;;
47483;SDS011;54076;50.322;18.650;2023-07-28T08:29:53;5.40;;;2.40;;
47483;SDS011;54076;50.322;18.650;2023-07-28T08:34:54;5.10;;;2.30;;
47483;SDS011;54076;50.322;18.650;2023-07-28T08:39:55;5.50;;;2.20;;
47483;SDS011;54076;50.322;18.650;2023-07-28T08:44:56;5.30;;;2.20;;
47483;SDS011;54076;50.322;18.650;2023-07-28T08:49:57;5.70;;;2.40;;
47483;SDS011;54076;50.322;18.650;2023-07-28T08:54:58;5.20;;;2.40;;
47483;SDS011;54076;50.322;18.650;2023-07-28T09:00:06;5.30;;;2.80;;
47483;SDS011;54076;50.322;18.650;2023-07-28T09:05:21;7.40;;;2.30;;
47483;SDS011;54076;50.322;18.650;2023-07-28T09:10:24;6.00;;;2.30;;
47483;SDS011;54076;50.322;18.650;2023-07-28T09:15:25;6.00;;;2.40;;
47483;SDS011;54076;50.322;18.650;2023-07-28T09:20:33;5.20;;;2.40;;
47483;SDS011;54076;50.322;18.650;2023-07-28T09:25:37;6.70;;;2.80;;
47483;SDS011;54076;50.322;18.650;2023-07-28T09:30:48;6.10;;;2.40;;
47483;SDS011;54076;50.322;18.650;2023-07-28T09:35:50;6.80;;;2.40;;
47483;SDS011;54076;50.322;18.650;2023-07-28T09:40:51;5.80;;;2.40;;
47483;SDS011;54076;50.322;18.650;2023-07-28T09:45:52;5.90;;;2.60;;
47483;SDS011;54076;50.322;18.650;2023-07-28T09:50:53;6.30;;;2.30;;
47483;SDS011;54076;50.322;18.650;2023-07-28T09:55:54;5.90;;;2.40;;
47483;SDS011;54076;50.322;18.650;2023-07-28T10:00:56;7.80;;;3.00;;
47483;SDS011;54076;50.322;18.650;2023-07-28T10:05:58;6.80;;;2.80;;
47483;SDS011;54076;50.322;18.650;2023-07-28T10:11:01;5.50;;;2.50;;
47483;SDS011;54076;50.322;18.650;2023-07-28T10:16:02;5.50;;;2.60;;
47483;SDS011;54076;50.322;18.650;2023-07-28T10:21:15;5.70;;;2.30;;
47483;SDS011;54076;50.322;18.650;2023-07-28T10:26:17;7.50;;;2.60;;
47483;SDS011;54076;50.322;18.650;2023-07-28T10:31:31;8.00;;;2.90;;
47483;SDS011;54076;50.322;18.650;2023-07-28T10:36:33;6.90;;;3.00;;
47483;SDS011;54076;50.322;18.650;2023-07-28T10:41:38;6.00;;;2.60;;
47483;SDS011;54076;50.322;18.650;2023-07-28T10:46:39;6.20;;;2.60;;
47483;SDS011;54076;50.322;18.650;2023-07-28T10:51:40;6.10;;;3.10;;
47483;SDS011;54076;50.322;18.650;2023-07-28T10:56:41;6.90;;;2.60;;
47483;SDS011;54076;50.322;18.650;2023-07-28T11:01:42;4.90;;;2.50;;
47483;SDS011;54076;50.322;18.650;2023-07-28T11:06:45;5.10;;;2.10;;
47483;SDS011;54076;50.322;18.650;2023-07-28T11:11:50;5.50;;;2.50;;
47483;SDS011;54076;50.322;18.650;2023-07-28T11:16:52;7.10;;;2.70;;
47483;SDS011;54076;50.322;18.650;2023-07-28T11:21:54;4.60;;;2.30;;
47483;SDS011;54076;50.322;18.650;2023-07-28T11:26:57;4.80;;;2.30;;
47483;SDS011;54076;50.322;18.650;2023-07-28T11:31:59;4.50;;;2.00;;
47483;SDS011;54076;50.322;18.650;2023-07-28T11:37:00;3.70;;;1.60;;
47483;SDS011;54076;50.322;18.650;2023-07-28T11:42:04;4.30;;;1.30;;
47483;SDS011;54076;50.322;18.650;2023-07-28T11:47:06;4.80;;;1.70;;
47483;SDS011;54076;50.322;18.650;2023-07-28T11:52:07;5.30;;;2.20;;
47483;SDS011;54076;50.322;18.650;2023-07-28T11:57:08;4.00;;;1.20;;
47483;SDS011;54076;50.322;18.650;2023-07-28T12:02:09;5.10;;;1.50;;
47483;SDS011;54076;50.322;18.650;2023-07-28T12:07:15;4.70;;;1.40;;
47483;SDS011;54076;50.322;18.650;2023-07-28T12:12:22;3.30;;;1.30;;
47483;SDS011;54076;50.322;18.650;2023-07-28T12:17:25;4.70;;;1.70;;
47483;SDS011;54076;50.322;18.650;2023-07-28T12:22:30;6.10;;;2.50;;
47483;SDS011;54076;50.322;18.650;2023-07-28T12:27:31;3.30;;;1.40;;
47483;SDS011;54076;50.322;18.650;2023-07-28T12:32:32;3.20;;;1.20;;
47483;SDS011;54076;50.322;18.650;2023-07-28T12:37:33;6.20;;;1.40;;
47483;SDS011;54076;50.322;18.650;2023-07-28T12:42:34;3.60;;;1.20;;
47483;SDS011;54076;50.322;18.650;2023-07-28T12:47:35;3.00;;;1.20;;
47483;SDS011;54076;50.322;18.650;2023-07-28T12:52:36;4.20;;;1.20;;
47483;SDS011;54076;50.322;18.650;2023-07-28T12:57:37;4.40;;;1.30;;
47483;SDS011;54076;50.322;18.650;2023-07-28T13:02:40;4.10;;;1.20;;
47483;SDS011;54076;50.322;18.650;2023-07-28T13:07:41;3.20;;;1.10;;
47483;SDS011;54076;50.322;18.650;2023-07-28T13:12:42;3.40;;;1.50;;
47483;SDS011;54076;50.322;18.650;2023-07-28T13:17:43;3.90;;;1.30;;
47483;SDS011;54076;50.322;18.650;2023-07-28T13:22:44;4.90;;;1.30;;
47483;SDS011;54076;50.322;18.650;2023-07-28T13:27:45;3.30;;;1.30;;
47483;SDS011;54076;50.322;18.650;2023-07-28T13:32:46;3.40;;;1.20;;
47483;SDS011;54076;50.322;18.650;2023-07-28T13:37:47;2.80;;;1.10;;
47483;SDS011;54076;50.322;18.650;2023-07-28T13:42:48;2.80;;;1.00;;
47483;SDS011;54076;50.322;18.650;2023-07-28T13:47:49;2.90;;;1.00;;
47483;SDS011;54076;50.322;18.650;2023-07-28T13:52:50;3.30;;;1.20;;
47483;SDS011;54076;50.322;18.650;2023-07-28T13:57:51;3.60;;;1.60;;
47483;SDS011;54076;50.322;18.650;2023-07-28T14:02:52;4.20;;;1.30;;
47483;SDS011;54076;50.322;18.650;2023-07-28T14:07:52;4.30;;;1.00;;
47483;SDS011;54076;50.322;18.650;2023-07-28T14:12:53;3.30;;;1.20;;
47483;SDS011;54076;50.322;18.650;2023-07-28T14:17:54;2.90;;;1.10;;
47483;SDS011;54076;50.322;18.650;2023-07-28T14:22:55;3.30;;;1.50;;
47483;SDS011;54076;50.322;18.650;2023-07-28T14:27:56;3.70;;;1.50;;
47483;SDS011;54076;50.322;18.650;2023-07-28T14:32:57;4.50;;;1.40;;
47483;SDS011;54076;50.322;18.650;2023-07-28T14:38:00;4.20;;;1.30;;
47483;SDS011;54076;50.322;18.650;2023-07-28T14:43:01;3.90;;;1.50;;
47483;SDS011;54076;50.322;18.650;2023-07-28T14:48:02;3.90;;;1.60;;
47483;SDS011;54076;50.322;18.650;2023-07-28T14:53:33;4.20;;;1.10;;
47483;SDS011;54076;50.322;18.650;2023-07-28T14:58:36;4.00;;;1.20;;
47483;SDS011;54076;50.322;18.650;2023-07-28T15:03:37;3.80;;;1.10;;
47483;SDS011;54076;50.322;18.650;2023-07-28T15:08:38;3.60;;;1.20;;
47483;SDS011;54076;50.322;18.650;2023-07-28T15:13:39;4.00;;;1.40;;
47483;SDS011;54076;50.322;18.650;2023-07-28T15:18:40;2.70;;;1.00;;
47483;SDS011;54076;50.322;18.650;2023-07-28T15:23:42;3.10;;;1.20;;
47483;SDS011;54076;50.322;18.650;2023-07-28T15:28:43;6.80;;;1.30;;
47483;SDS011;54076;50.322;18.650;2023-07-28T15:33:44;3.30;;;1.00;;
47483;SDS011;54076;50.322;18.650;2023-07-28T15:38:45;3.50;;;1.20;;
47483;SDS011;54076;50.322;18.650;2023-07-28T15:43:45;2.60;;;0.90;;
47483;SDS011;54076;50.322;18.650;2023-07-28T15:48:46;4.10;;;1.00;;
47483;SDS011;54076;50.322;18.650;2023-07-28T15:53:47;3.40;;;1.10;;
47483;SDS011;54076;50.322;18.650;2023-07-28T15:58:48;4.20;;;1.40;;
47483;SDS011;54076;50.322;18.650;2023-07-28T16:03:52;4.00;;;1.40;;
47483;SDS011;54076;50.322;18.650;2023-07-28T16:08:53;4.90;;;1.50;;
47483;SDS011;54076;50.322;18.650;2023-07-28T16:13:54;4.20;;;1.20;;
47483;SDS011;54076;50.322;18.650;2023-07-28T16:18:54;3.70;;;1.10;;
47483;SDS011;54076;50.322;18.650;2023-07-28T16:23:55;3.60;;;1.40;;
47483;SDS011;54076;50.322;18.650;2023-07-28T16:28:56;4.00;;;1.60;;
47483;SDS011;54076;50.322;18.650;2023-07-28T16:33:57;3.60;;;1.20;;
47483;SDS011;54076;50.322;18.650;2023-07-28T16:38:58;4.40;;;1.50;;
47483;SDS011;54076;50.322;18.650;2023-07-28T16:43:59;4.00;;;1.00;;
47483;SDS011;54076;50.322;18.650;2023-07-28T16:49:00;3.50;;;0.90;;
47483;SDS011;54076;50.322;18.650;2023-07-28T16:54:01;3.40;;;0.80;;
47483;SDS011;54076;50.322;18.650;2023-07-28T16:59:02;3.20;;;0.80;;
47483;SDS011;54076;50.322;18.650;2023-07-28T17:04:03;2.90;;;0.70;;
47483;SDS011;54076;50.322;18.650;2023-07-28T17:09:04;3.50;;;0.80;;
47483;SDS011;54076;50.322;18.650;2023-07-28T17:14:06;2.60;;;0.90;;
47483;SDS011;54076;50.322;18.650;2023-07-28T17:19:06;5.20;;;0.80;;
47483;SDS011;54076;50.322;18.650;2023-07-28T17:24:07;3.00;;;0.80;;
47483;SDS011;54076;50.322;18.650;2023-07-28T17:29:08;3.80;;;0.80;;
47483;SDS011;54076;50.322;18.650;2023-07-28T17:34:09;3.20;;;1.00;;
47483;SDS011;54076;50.322;18.650;2023-07-28T17:39:10;3.60;;;0.90;;
47483;SDS011;54076;50.322;18.650;2023-07-28T17:44:11;3.30;;;1.10;;
47483;SDS011;54076;50.322;18.650;2023-07-28T17:49:12;3.70;;;1.30;;
47483;SDS011;54076;50.322;18.650;2023-07-28T17:54:13;4.10;;;1.50;;
47483;SDS011;54076;50.322;18.650;2023-07-28T17:59:14;4.20;;;1.60;;
47483;SDS011;54076;50.322;18.650;2023-07-28T18:04:15;3.90;;;1.30;;
47483;SDS011;54076;50.322;18.650;2023-07-28T18:09:16;3.60;;;1.30;;
47483;SDS011;54076;50.322;18.650;2023-07-28T18:14:17;4.00;;;1.30;;
47483;SDS011;54076;50.322;18.650;2023-07-28T18:19:18;3.90;;;1.20;;
47483;SDS011;54076;50.322;18.650;2023-07-28T18:24:19;5.10;;;1.60;;
47483;SDS011;54076;50.322;18.650;2023-07-28T18:29:20;7.10;;;2.50;;
47483;SDS011;54076;50.322;18.650;2023-07-28T18:34:21;5.30;;;1.80;;
47483;SDS011;54076;50.322;18.650;2023-07-28T18:39:23;4.40;;;1.70;;
47483;SDS011;54076;50.322;18.650;2023-07-28T18:44:23;4.90;;;1.80;;
47483;SDS011;54076;50.322;18.650;2023-07-28T18:49:24;5.40;;;1.80;;
47483;SDS011;54076;50.322;18.650;2023-07-28T18:54:25;8.20;;;2.10;;
47483;SDS011;54076;50.322;18.650;2023-07-28T18:59:26;4.70;;;1.80;;
47483;SDS011;54076;50.322;18.650;2023-07-28T19:04:28;6.60;;;1.80;;
47483;SDS011;54076;50.322;18.650;2023-07-28T19:09:29;7.10;;;2.00;;
47483;SDS011;54076;50.322;18.650;2023-07-28T19:14:30;6.60;;;2.60;;
47483;SDS011;54076;50.322;18.650;2023-07-28T19:19:30;5.00;;;1.60;;
47483;SDS011;54076;50.322;18.650;2023-07-28T19:24:31;5.30;;;1.70;;
47483;SDS011;54076;50.322;18.650;2023-07-28T19:29:33;3.80;;;1.60;;
47483;SDS011;54076;50.322;18.650;2023-07-28T19:34:33;5.80;;;1.60;;
47483;SDS011;54076;50.322;18.650;2023-07-28T19:39:35;4.20;;;1.60;;
47483;SDS011;54076;50.322;18.650;2023-07-28T19:44:35;4.90;;;1.50;;
47483;SDS011;54076;50.322;18.650;2023-07-28T19:49:36;5.40;;;1.90;;
47483;SDS011;54076;50.322;18.650;2023-07-28T19:54:37;5.90;;;1.70;;
47483;SDS011;54076;50.322;18.650;2023-07-28T19:59:38;4.90;;;1.60;;
47483;SDS011;54076;50.322;18.650;2023-07-28T20:04:39;5.90;;;1.60;;
47483;SDS011;54076;50.322;18.650;2023-07-28T20:09:41;5.10;;;1.80;;
47483;SDS011;54076;50.322;18.650;2023-07-28T20:14:42;4.70;;;1.60;;
47483;SDS011;54076;50.322;18.650;2023-07-28T20:19:43;5.30;;;1.60;;
47483;SDS011;54076;50.322;18.650;2023-07-28T20:24:45;7.80;;;1.80;;
47483;SDS011;54076;50.322;18.650;2023-07-28T20:29:46;5.50;;;2.00;;
47483;SDS011;54076;50.322;18.650;2023-07-28T20:34:47;4.60;;;1.90;;
47483;SDS011;54076;50.322;18.650;2023-07-28T20:39:48;5.70;;;2.30;;
47483;SDS011;54076;50.322;18.650;2023-07-28T20:44:49;4.40;;;2.10;;
47483;SDS011;54076;50.322;18.650;2023-07-28T20:49:51;6.00;;;2.30;;
47483;SDS011;54076;50.322;18.650;2023-07-28T20:54:52;7.10;;;2.40;;
47483;SDS011;54076;50.322;18.650;2023-07-28T20:59:53;6.20;;;2.20;;
47483;SDS011;54076;50.322;18.650;2023-07-28T21:04:53;6.30;;;2.80;;
47483;SDS011;54076;50.322;18.650;2023-07-28T21:09:56;6.10;;;2.50;;
47483;SDS011;54076;50.322;18.650;2023-07-28T21:14:57;7.80;;;2.50;;
47483;SDS011;54076;50.322;18.650;2023-07-28T21:19:58;5.20;;;2.20;;
47483;SDS011;54076;50.322;18.650;2023-07-28T21:24:59;6.20;;;2.80;;
47483;SDS011;54076;50.322;18.650;2023-07-28T21:30:00;5.40;;;2.40;;
47483;SDS011;54076;50.322;18.650;2023-07-28T21:35:01;5.80;;;2.70;;
47483;SDS011;54076;50.322;18.650;2023-07-28T21:40:02;6.00;;;2.20;;
47483;SDS011;54076;50.322;18.650;2023-07-28T21:45:05;5.60;;;2.40;;
47483;SDS011;54076;50.322;18.650;2023-07-28T21:50:07;5.50;;;2.40;;
47483;SDS011;54076;50.322;18.650;2023-07-28T21:55:09;6.10;;;3.00;;
47483;SDS011;54076;50.322;18.650;2023-07-28T22:00:14;6.00;;;2.30;;
47483;SDS011;54076;50.322;18.650;2023-07-28T22:05:15;7.00;;;2.60;;
47483;SDS011;54076;50.322;18.650;2023-07-28T22:10:17;7.90;;;3.00;;
47483;SDS011;54076;50.322;18.650;2023-07-28T22:15:18;7.70;;;2.80;;
47483;SDS011;54076;50.322;18.650;2023-07-28T22:20:19;7.90;;;2.70;;
47483;SDS011;54076;50.322;18.650;2023-07-28T22:25:21;9.10;;;3.10;;
47483;SDS011;54076;50.322;18.650;2023-07-28T22:30:22;9.90;;;2.90;;
47483;SDS011;54076;50.322;18.650;2023-07-28T22:35:23;8.50;;;2.90;;
47483;SDS011;54076;50.322;18.650;2023-07-28T22:40:24;7.00;;;2.90;;
47483;SDS011;54076;50.322;18.650;2023-07-28T22:45:25;8.70;;;3.00;;
47483;SDS011;54076;50.322;18.650;2023-07-28T22:50:26;6.10;;;2.70;;
47483;SDS011;54076;50.322;18.650;2023-07-28T22:55:28;5.80;;;2.70;;
47483;SDS011;54076;50.322;18.650;2023-07-28T23:00:29;9.30;;;2.60;;
47483;SDS011;54076;50.322;18.650;2023-07-28T23:05:30;7.60;;;3.20;;
47483;SDS011;54076;50.322;18.650;2023-07-28T23:10:31;5.80;;;2.70;;
47483;SDS011;54076;50.322;18.650;2023-07-28T23:15:32;6.10;;;2.80;;
47483;SDS011;54076;50.322;18.650;2023-07-28T23:20:33;7.50;;;2.80;;
47483;SDS011;54076;50.322;18.650;2023-07-28T23:25:36;6.90;;;2.80;;
47483;SDS011;54076;50.322;18.650;2023-07-28T23:30:37;9.50;;;3.20;;
47483;SDS011;54076;50.322;18.650;2023-07-28T23:35:38;8.60;;;3.20;;
47483;SDS011;54076;50.322;18.650;2023-07-28T23:40:39;8.60;;;3.70;;
47483;SDS011;54076;50.322;18.650;2023-07-28T23:45:40;8.20;;;3.50;;
47483;SDS011;54076;50.322;18.650;2023-07-28T23:50:41;8.30;;;3.50;;
47483;SDS011;54076;50.322;18.650;2023-07-28T23:55:42;8.00;;;3.40;;
